createdAt,value
2019-03-01T00:00:04.632Z,2.20
2019-03-01T00:03:09.491Z,2.20
2019-03-01T00:06:31.719Z,2.52
2019-03-01T00:10:28.538Z,2.30
2019-03-01T00:14:42.026Z,2.00
2019-03-01T00:18:25.902Z,2.40
2019-03-01T00:22:15.755Z,2.25
2019-03-01T00:26:05.490Z,2.00
2019-03-01T00:29:49.991Z,2.60
2019-03-01T00:33:15.451Z,2.25
2019-03-01T00:36:58.231Z,2.35
2019-03-01T00:40:55.736Z,2.20
2019-03-01T00:44:44.526Z,2.45
2019-03-01T00:47:46.228Z,2.20
2019-03-01T00:50:47.842Z,2.27
2019-03-01T00:53:49.263Z,1.95
2019-03-01T00:56:50.714Z,2.40
2019-03-01T00:59:52.182Z,2.12
2019-03-01T01:02:53.573Z,2.30
2019-03-01T01:05:55.183Z,2.20
2019-03-01T01:08:56.588Z,2.37
2019-03-01T01:11:57.963Z,2.02
2019-03-01T01:14:59.367Z,2.05
2019-03-01T01:18:00.749Z,2.10
2019-03-01T01:21:02.139Z,2.80
2019-03-01T01:24:03.548Z,1.82
2019-03-01T01:27:05.064Z,2.30
2019-03-01T01:30:07.367Z,2.30
2019-03-01T01:33:08.828Z,1.70
2019-03-01T01:36:10.233Z,2.00
2019-03-01T01:39:12.230Z,2.17
2019-03-01T01:42:13.630Z,2.30
2019-03-01T01:45:15.030Z,2.10
2019-03-01T01:48:16.447Z,2.42
2019-03-01T01:51:17.949Z,2.02
2019-03-01T01:54:19.343Z,2.60
2019-03-01T01:57:20.784Z,2.98
2019-03-01T02:00:22.174Z,2.02
2019-03-01T02:03:23.658Z,2.20
2019-03-01T02:06:25.242Z,2.20
2019-03-01T02:09:27.607Z,2.30
2019-03-01T02:12:28.980Z,2.40
2019-03-01T02:15:30.390Z,2.08
2019-03-01T02:18:31.779Z,2.05
2019-03-01T02:21:33.347Z,2.00
2019-03-01T02:24:34.694Z,2.20
2019-03-01T02:27:36.097Z,2.17
2019-03-01T02:30:37.489Z,2.15
2019-03-01T02:33:38.875Z,1.90
2019-03-01T02:36:40.293Z,1.80
2019-03-01T02:39:41.898Z,1.80
2019-03-01T02:42:43.334Z,2.17
2019-03-01T02:45:44.707Z,1.70
2019-03-01T02:48:46.085Z,1.95
2019-03-01T02:51:47.463Z,2.08
2019-03-01T02:54:48.831Z,1.77
2019-03-01T02:57:50.331Z,2.05
2019-03-01T03:00:51.699Z,1.90
2019-03-01T03:03:53.414Z,1.65
2019-03-01T03:07:16.951Z,2.15
2019-03-01T03:10:18.579Z,2.27
2019-03-01T03:13:20.184Z,1.90
2019-03-01T03:16:21.599Z,2.10
2019-03-01T03:19:23.138Z,2.10
2019-03-01T03:22:24.514Z,2.02
2019-03-01T03:25:25.895Z,1.47
2019-03-01T03:28:27.353Z,1.77
2019-03-01T03:31:28.748Z,2.02
2019-03-01T03:34:30.197Z,1.92
2019-03-01T03:37:31.659Z,1.90
2019-03-01T03:40:33.249Z,1.50
2019-03-01T03:43:34.624Z,2.10
2019-03-01T03:46:36.079Z,1.67
2019-03-01T03:49:37.493Z,1.92
2019-03-01T03:52:38.856Z,2.00
2019-03-01T03:55:40.256Z,1.90
2019-03-01T03:58:41.708Z,1.75
2019-03-01T04:01:43.060Z,1.60
2019-03-01T04:04:45.435Z,1.62
2019-03-01T04:07:47.686Z,1.40
2019-03-01T04:10:50.108Z,1.60
2019-03-01T04:13:51.643Z,1.77
2019-03-01T04:16:53.078Z,1.85
2019-03-01T04:19:54.468Z,1.62
2019-03-01T04:22:55.911Z,2.00
2019-03-01T04:25:57.370Z,1.80
2019-03-01T04:28:58.918Z,1.50
2019-03-01T04:32:00.593Z,1.37
2019-03-01T04:35:02.400Z,1.60
2019-03-01T04:38:03.978Z,2.00
2019-03-01T04:41:05.377Z,1.70
2019-03-01T04:44:06.739Z,1.40
2019-03-01T04:47:08.146Z,1.55
2019-03-01T04:50:11.202Z,1.50
2019-03-01T04:53:12.595Z,1.40
2019-03-01T04:56:14.205Z,1.60
2019-03-01T04:59:15.646Z,1.57
2019-03-01T05:02:17.036Z,1.92
2019-03-01T05:05:18.425Z,1.40
2019-03-01T05:08:19.894Z,1.50
2019-03-01T05:11:21.323Z,1.25
2019-03-01T05:14:22.714Z,1.72
2019-03-01T05:17:24.202Z,1.60
2019-03-01T05:20:25.573Z,1.70
2019-03-01T05:23:26.931Z,1.22
2019-03-01T05:26:28.355Z,1.50
2019-03-01T05:29:29.798Z,1.70
2019-03-01T05:32:31.230Z,1.70
2019-03-01T05:35:32.632Z,1.50
2019-03-01T05:38:34.041Z,1.57
2019-03-01T05:41:35.425Z,1.60
2019-03-01T05:44:36.884Z,1.52
2019-03-01T05:47:38.293Z,1.37
2019-03-01T05:50:39.712Z,1.50
2019-03-01T05:53:41.201Z,1.30
2019-03-01T05:56:42.589Z,1.10
2019-03-01T05:59:43.940Z,1.30
2019-03-01T06:03:21.402Z,1.35
2019-03-01T06:06:31.356Z,1.25
2019-03-01T06:10:19.518Z,1.35
2019-03-01T06:14:25.671Z,1.10
2019-03-01T06:17:49.383Z,1.10
2019-03-01T06:21:47.948Z,1.12
2019-03-01T06:25:19.179Z,1.20
2019-03-01T06:28:56.611Z,1.60
2019-03-01T06:32:49.144Z,1.40
2019-03-01T06:36:11.141Z,1.27
2019-03-01T06:39:49.506Z,1.50
2019-03-01T06:44:27.657Z,1.50
2019-03-01T06:47:49.484Z,1.57
2019-03-01T06:51:02.991Z,1.27
2019-03-01T06:54:04.444Z,1.50
2019-03-01T06:57:06.399Z,1.40
2019-03-01T07:00:09.329Z,1.40
2019-03-01T07:03:11.287Z,1.55
2019-03-01T07:06:12.769Z,1.10
2019-03-01T07:09:14.531Z,1.30
2019-03-01T07:12:15.975Z,1.05
2019-03-01T07:15:17.635Z,1.10
2019-03-01T07:18:19.142Z,1.32
2019-03-01T07:21:20.614Z,1.55
2019-03-01T07:24:22.032Z,1.15
2019-03-01T07:27:24.531Z,1.45
2019-03-01T07:30:25.932Z,1.30
2019-03-01T07:33:27.484Z,1.42
2019-03-01T07:36:29.941Z,1.65
2019-03-01T07:39:31.456Z,1.30
2019-03-01T07:42:32.863Z,1.40
2019-03-01T07:45:34.301Z,1.17
2019-03-01T07:48:35.817Z,1.47
2019-03-01T07:51:37.501Z,1.35
2019-03-01T07:54:38.979Z,1.25
2019-03-01T07:57:40.407Z,1.40
2019-03-01T08:00:41.821Z,1.40
2019-03-01T08:03:43.211Z,1.27
2019-03-01T08:06:45.515Z,1.30
2019-03-01T08:09:47.867Z,1.15
2019-03-01T08:12:49.382Z,1.37
2019-03-01T08:15:50.814Z,1.40
2019-03-01T08:18:52.291Z,1.20
2019-03-01T08:21:53.857Z,1.32
2019-03-01T08:24:55.419Z,1.47
2019-03-01T08:27:56.853Z,1.60
2019-03-01T08:30:58.281Z,1.20
2019-03-01T08:33:59.697Z,1.12
2019-03-01T08:37:01.170Z,1.10
2019-03-01T08:40:03.082Z,1.40
2019-03-01T08:43:04.550Z,1.75
2019-03-01T08:46:09.380Z,1.07
2019-03-01T08:49:10.617Z,1.30
2019-03-01T08:52:12.660Z,1.32
2019-03-01T08:55:16.911Z,1.47
2019-03-01T08:58:18.392Z,1.50
2019-03-01T09:01:20.264Z,1.22
2019-03-01T09:04:23.115Z,1.30
2019-03-01T09:07:27.170Z,1.05
2019-03-01T09:10:29.197Z,1.37
2019-03-01T09:13:31.216Z,1.75
2019-03-01T09:16:32.713Z,1.50
2019-03-01T09:19:34.399Z,1.25
2019-03-01T09:22:35.856Z,1.42
2019-03-01T09:25:37.371Z,1.70
2019-03-01T09:28:40.153Z,1.20
2019-03-01T09:31:41.678Z,1.30
2019-03-01T09:34:43.341Z,1.32
2019-03-01T09:37:44.848Z,1.30
2019-03-01T09:40:46.297Z,1.20
2019-03-01T09:43:47.746Z,1.32
2019-03-01T09:46:49.222Z,1.22
2019-03-01T09:49:51.064Z,1.50
2019-03-01T09:52:55.531Z,1.65
2019-03-01T09:55:55.778Z,1.40
2019-03-01T09:58:57.414Z,1.37
2019-03-01T10:01:58.897Z,1.37
2019-03-01T10:05:00.439Z,1.10
2019-03-01T10:08:01.938Z,1.20
2019-03-01T10:11:03.762Z,1.42
2019-03-01T10:14:05.308Z,1.50
2019-03-01T10:17:06.865Z,1.47
2019-03-01T10:20:11.938Z,1.55
2019-03-01T10:23:13.433Z,1.50
2019-03-01T10:26:15.047Z,1.70
2019-03-01T10:29:16.539Z,1.70
2019-03-01T10:32:17.971Z,1.55
2019-03-01T10:35:19.922Z,1.52
2019-03-01T10:38:21.422Z,1.42
2019-03-01T10:41:23.036Z,1.32
2019-03-01T10:44:25.059Z,1.50
2019-03-01T10:47:26.832Z,1.72
2019-03-01T10:50:28.238Z,1.87
2019-03-01T10:53:29.753Z,1.45
2019-03-01T10:56:31.185Z,1.50
2019-03-01T10:59:32.660Z,1.30
2019-03-01T11:02:34.103Z,1.42
2019-03-01T11:05:35.560Z,2.22
2019-03-01T11:08:37.348Z,1.92
2019-03-01T11:11:41.277Z,1.90
2019-03-01T11:14:43.125Z,1.90
2019-03-01T11:17:44.664Z,1.92
2019-03-01T11:20:46.101Z,1.87
2019-03-01T11:23:47.540Z,1.75
2019-03-01T11:26:49.231Z,2.00
2019-03-01T11:29:50.697Z,1.98
2019-03-01T11:32:52.186Z,2.08
2019-03-01T11:35:53.970Z,2.30
2019-03-01T11:38:55.507Z,2.70
2019-03-01T11:41:57.035Z,2.15
2019-03-01T11:44:58.546Z,1.90
2019-03-01T11:48:00.063Z,2.02
2019-03-01T11:51:01.508Z,2.50
2019-03-01T11:54:03.443Z,2.30
2019-03-01T11:57:04.965Z,2.30
2019-03-01T12:00:08.074Z,2.37
2019-03-01T12:03:10.551Z,2.10
2019-03-01T12:06:11.998Z,2.27
2019-03-01T12:09:13.623Z,2.35
2019-03-01T12:12:15.116Z,2.20
2019-03-01T12:15:16.684Z,2.17
2019-03-01T12:18:18.552Z,1.95
2019-03-01T12:21:20.061Z,2.20
2019-03-01T12:24:21.691Z,2.12
2019-03-01T12:27:23.234Z,2.50
2019-03-01T12:30:25.317Z,2.10
2019-03-01T12:33:27.418Z,2.65
2019-03-01T12:36:28.958Z,2.12
2019-03-01T12:39:30.521Z,2.20
2019-03-01T12:42:32.068Z,2.25
2019-03-01T12:45:33.614Z,2.37
2019-03-01T12:48:35.093Z,2.37
2019-03-01T12:51:36.921Z,2.17
2019-03-01T12:54:38.447Z,2.58
2019-03-01T12:57:40.202Z,2.30
2019-03-01T13:00:41.669Z,2.58
2019-03-01T13:03:43.829Z,2.55
2019-03-01T13:06:46.140Z,2.35
2019-03-01T13:09:47.843Z,2.72
2019-03-01T13:12:49.495Z,2.52
2019-03-01T13:15:52.214Z,2.70
2019-03-01T13:18:53.809Z,2.58
2019-03-01T13:21:55.270Z,2.77
2019-03-01T13:24:56.840Z,2.20
2019-03-01T13:27:58.590Z,2.70
2019-03-01T13:31:00.145Z,2.72
2019-03-01T13:34:01.680Z,2.98
2019-03-01T13:37:05.101Z,2.67
2019-03-01T13:40:09.380Z,2.83
2019-03-01T13:43:10.926Z,2.42
2019-03-01T13:46:12.456Z,2.77
2019-03-01T13:49:13.939Z,2.70
2019-03-01T13:52:15.453Z,2.33
2019-03-01T13:55:18.611Z,2.70
2019-03-01T13:58:20.569Z,2.50
2019-03-01T14:01:23.713Z,2.47
2019-03-01T14:04:26.339Z,2.50
2019-03-01T14:07:28.062Z,2.83
2019-03-01T14:10:29.629Z,2.45
2019-03-01T14:13:31.067Z,2.80
2019-03-01T14:16:32.848Z,2.80
2019-03-01T14:19:34.430Z,2.67
2019-03-01T14:22:35.963Z,3.15
2019-03-01T14:25:38.570Z,2.90
2019-03-01T14:28:41.229Z,4.28
2019-03-01T14:31:43.805Z,3.45
2019-03-01T14:34:48.661Z,3.25
2019-03-01T14:37:54.140Z,3.50
2019-03-01T14:40:51.957Z,3.50
2019-03-01T14:43:58.636Z,3.62
2019-03-01T14:46:57.080Z,3.58
2019-03-01T14:49:59.113Z,3.92
2019-03-01T14:53:00.548Z,4.03
2019-03-01T14:56:18.046Z,4.17
2019-03-01T14:59:54.909Z,4.10
2019-03-01T15:03:36.475Z,4.08
2019-03-01T15:06:37.996Z,4.30
2019-03-01T15:09:39.454Z,4.28
2019-03-01T15:12:41.004Z,4.65
2019-03-01T15:15:42.499Z,3.75
2019-03-01T15:18:44.420Z,4.55
2019-03-01T15:21:47.025Z,4.55
2019-03-01T15:24:48.593Z,4.33
2019-03-01T15:27:50.053Z,4.30
2019-03-01T15:30:51.599Z,4.45
2019-03-01T15:33:53.404Z,4.20
2019-03-01T15:36:56.088Z,4.75
2019-03-01T15:39:58.254Z,4.00
2019-03-01T15:42:59.732Z,4.50
2019-03-01T15:46:01.381Z,4.72
2019-03-01T15:49:02.856Z,5.00
2019-03-01T15:52:04.407Z,4.80
2019-03-01T15:55:07.713Z,4.50
2019-03-01T15:58:10.735Z,4.83
2019-03-01T16:01:12.997Z,4.72
2019-03-01T16:04:14.578Z,4.55
2019-03-01T16:07:16.098Z,4.45
2019-03-01T16:10:17.669Z,4.42
2019-03-01T16:13:19.468Z,4.78
2019-03-01T16:16:20.946Z,4.90
2019-03-01T16:19:22.446Z,4.80
2019-03-01T16:22:23.930Z,4.53
2019-03-01T16:25:25.449Z,5.05
2019-03-01T16:28:27.453Z,4.55
2019-03-01T16:31:32.097Z,5.17
2019-03-01T16:34:33.412Z,4.55
2019-03-01T16:37:34.979Z,4.65
2019-03-01T16:40:36.468Z,5.08
2019-03-01T16:43:38.203Z,4.83
2019-03-01T16:46:40.115Z,4.95
2019-03-01T16:49:42.148Z,5.90
2019-03-01T16:52:44.996Z,5.72
2019-03-01T16:55:46.507Z,5.83
2019-03-01T16:58:48.001Z,6.20
2019-03-01T17:01:50.431Z,6.22
2019-03-01T17:04:52.382Z,6.62
2019-03-01T17:07:53.933Z,6.45
2019-03-01T17:10:55.501Z,7.30
2019-03-01T17:13:59.571Z,8.10
2019-03-01T17:17:00.737Z,9.40
2019-03-01T17:20:03.744Z,8.95
2019-03-01T17:23:06.558Z,9.58
2019-03-01T17:26:08.189Z,10.03
2019-03-01T17:29:09.697Z,8.80
2019-03-01T17:32:11.240Z,9.73
2019-03-01T17:35:13.150Z,10.30
2019-03-01T17:38:14.748Z,8.85
2019-03-01T17:41:16.203Z,9.30
2019-03-01T17:44:17.712Z,9.28
2019-03-01T17:47:19.233Z,8.95
2019-03-01T17:50:20.784Z,9.03
2019-03-01T17:53:22.457Z,9.98
2019-03-01T17:56:24.026Z,10.25
2019-03-01T17:59:25.539Z,9.83
2019-03-01T18:02:27.047Z,10.93
2019-03-01T18:05:28.604Z,12.65
2019-03-01T18:08:30.543Z,13.20
2019-03-01T18:11:31.999Z,14.13
2019-03-01T18:14:33.842Z,13.50
2019-03-01T18:17:37.616Z,14.85
2019-03-01T18:20:39.167Z,12.40
2019-03-01T18:23:40.884Z,13.72
2019-03-01T18:26:42.432Z,12.65
2019-03-01T18:29:44.516Z,12.73
2019-03-01T18:32:46.136Z,13.55
2019-03-01T18:35:48.941Z,13.18
2019-03-01T18:38:51.031Z,11.73
2019-03-01T18:41:53.386Z,12.63
2019-03-01T18:44:55.086Z,12.40
2019-03-01T18:47:56.696Z,13.10
2019-03-01T18:50:58.410Z,13.13
2019-03-01T18:54:00.677Z,12.85
2019-03-01T18:57:03.797Z,12.93
2019-03-01T19:00:16.936Z,12.18
2019-03-01T19:03:19.345Z,13.55
2019-03-01T19:06:20.898Z,11.80
2019-03-01T19:09:22.572Z,12.98
2019-03-01T19:12:24.788Z,13.13
2019-03-01T19:15:26.284Z,13.32
2019-03-01T19:18:27.956Z,12.37
2019-03-01T19:21:29.660Z,13.43
2019-03-01T19:24:31.193Z,12.88
2019-03-01T19:27:32.865Z,12.50
2019-03-01T19:30:34.406Z,14.13
2019-03-01T19:33:37.881Z,13.13
2019-03-01T19:36:39.679Z,13.15
2019-03-01T19:39:41.241Z,12.37
2019-03-01T19:42:42.897Z,13.18
2019-03-01T19:45:44.857Z,13.18
2019-03-01T19:48:46.464Z,12.47
2019-03-01T19:51:48.040Z,12.30
2019-03-01T19:54:49.657Z,13.15
2019-03-01T19:57:51.439Z,13.70
2019-03-01T20:00:53.003Z,13.10
2019-03-01T20:03:57.055Z,12.75
2019-03-01T20:06:58.735Z,12.90
2019-03-01T20:10:00.332Z,12.63
2019-03-01T20:13:01.951Z,12.63
2019-03-01T20:16:03.859Z,12.65
2019-03-01T20:19:05.553Z,12.65
2019-03-01T20:22:07.200Z,13.58
2019-03-01T20:25:12.705Z,12.15
2019-03-01T20:28:15.275Z,13.38
2019-03-01T20:31:17.846Z,12.15
2019-03-01T20:34:19.403Z,12.73
2019-03-01T20:37:20.934Z,12.33
2019-03-01T20:40:26.823Z,12.35
2019-03-01T20:43:26.378Z,11.85
2019-03-01T20:46:27.878Z,12.10
2019-03-01T20:49:30.511Z,11.73
2019-03-01T20:52:34.850Z,12.55
2019-03-01T20:55:37.110Z,11.45
2019-03-01T20:58:39.546Z,11.37
2019-03-01T21:01:42.023Z,11.85
2019-03-01T21:04:53.010Z,12.43
2019-03-01T21:07:48.215Z,10.68
2019-03-01T21:10:50.850Z,11.48
2019-03-01T21:13:52.468Z,11.40
2019-03-01T21:16:53.994Z,11.37
2019-03-01T21:19:55.883Z,10.98
2019-03-01T21:22:57.667Z,11.93
2019-03-01T21:26:00.641Z,10.65
2019-03-01T21:29:02.248Z,10.95
2019-03-01T21:32:04.064Z,10.82
2019-03-01T21:35:06.191Z,11.22
2019-03-01T21:38:10.653Z,11.30
2019-03-01T21:41:11.626Z,11.10
2019-03-01T21:44:13.711Z,11.10
2019-03-01T21:47:16.443Z,11.30
2019-03-01T21:50:18.119Z,9.80
2019-03-01T21:53:19.650Z,11.20
2019-03-01T21:56:21.460Z,11.10
2019-03-01T21:59:22.976Z,10.13
2019-03-01T22:02:24.566Z,11.50
2019-03-01T22:05:26.272Z,10.45
2019-03-01T22:08:27.952Z,10.13
2019-03-01T22:11:29.507Z,10.13
2019-03-01T22:14:31.072Z,10.53
2019-03-01T22:17:32.538Z,10.32
2019-03-01T22:20:34.042Z,9.98
2019-03-01T22:23:35.502Z,9.38
2019-03-01T22:26:37.013Z,10.08
2019-03-01T22:29:38.485Z,10.13
2019-03-01T22:32:42.337Z,10.55
2019-03-01T22:35:44.587Z,9.55
2019-03-01T22:38:46.257Z,9.00
2019-03-01T22:41:47.703Z,9.28
2019-03-01T22:44:49.400Z,9.43
2019-03-01T22:47:50.829Z,10.37
2019-03-01T22:50:52.726Z,8.98
2019-03-01T22:53:54.371Z,8.98
2019-03-01T22:56:55.924Z,9.58
2019-03-01T22:59:58.047Z,8.95
2019-03-01T23:02:59.539Z,9.40
2019-03-01T23:06:01.050Z,9.05
2019-03-01T23:09:04.116Z,9.15
2019-03-01T23:12:08.078Z,9.83
2019-03-01T23:15:10.304Z,9.50
2019-03-01T23:18:12.004Z,9.10
2019-03-01T23:21:13.873Z,8.95
2019-03-01T23:24:17.283Z,9.55
2019-03-01T23:27:18.756Z,8.60
2019-03-01T23:30:20.677Z,9.13
2019-03-01T23:33:22.224Z,8.68
2019-03-01T23:36:24.948Z,8.43
2019-03-01T23:39:26.853Z,8.45
2019-03-01T23:42:28.316Z,8.68
2019-03-01T23:45:29.824Z,9.28
2019-03-01T23:48:31.270Z,8.78
2019-03-01T23:51:32.776Z,9.05
2019-03-01T23:54:34.269Z,8.40
2019-03-01T23:57:37.945Z,8.23
